Time;durP1;ratioP1;P1;durP2;ratioP2;P2;SDS_P1;SDS_P2;PMS_P1;PMS_P2;Temp;Humidity;BMP_temperature;BMP_pressure;BME280_temperature;BME280_humidity;BME280_pressure;Samples;Min_cycle;Max_cycle;Signal;HPM_P1;HPM_P2
2022/03/31 00:01:41;;;;;;;2.40;2.10;;;2.20;99.90;;;;;;5089072;28;20270;-75
2022/03/31 00:04:08;;;;;;;6.33;2.40;;;2.20;99.90;;;;;;5088825;28;20273;-74
2022/03/31 00:06:35;;;;;;;3.27;2.63;;;2.20;99.90;;;;;;5103665;28;20206;-75
2022/03/31 00:09:04;;;;;;;4.60;2.33;;;2.20;99.90;;;;;;5096468;28;20216;-76
2022/03/31 00:11:30;;;;;;;2.33;1.97;;;2.20;99.90;;;;;;5083111;28;20240;-77
2022/03/31 00:13:57;;;;;;;4.73;1.87;;;2.30;99.90;;;;;;5084506;28;20264;-76
2022/03/31 00:16:24;;;;;;;3.43;2.13;;;2.30;99.90;;;;;;5084157;28;20274;-75
2022/03/31 00:18:51;;;;;;;4.10;2.20;;;2.40;99.90;;;;;;5083989;28;20225;-76
2022/03/31 00:24:42;;;;;;;4.30;2.20;;;2.40;99.90;;;;;;5084965;28;20187;-76
2022/03/31 00:27:09;;;;;;;1.67;1.57;;;2.50;99.90;;;;;;5083318;28;20213;-77
2022/03/31 00:29:35;;;;;;;2.83;2.20;;;2.50;99.90;;;;;;5083873;28;20208;-76
2022/03/31 00:32:04;;;;;;;5.33;2.20;;;2.50;99.90;;;;;;5084585;28;20315;-76
2022/03/31 00:34:31;;;;;;;3.47;2.27;;;2.60;99.90;;;;;;5083897;28;20200;-75
2022/03/31 00:36:58;;;;;;;8.43;2.13;;;2.60;99.90;;;;;;5083786;28;20223;-76
2022/03/31 00:39:32;;;;;;;3.77;1.93;;;2.60;99.90;;;;;;5083298;28;20600;-78
2022/03/31 00:42:02;;;;;;;6.40;2.50;;;2.60;99.90;;;;;;5084594;28;20201;-77
2022/03/31 00:44:29;;;;;;;3.50;2.10;;;2.70;99.90;;;;;;5088336;28;20904;-76
2022/03/31 00:46:57;;;;;;;2.63;1.63;;;2.70;99.90;;;;;;5088288;28;20247;-76
2022/03/31 00:49:26;;;;;;;5.47;2.07;;;2.70;99.90;;;;;;5108152;28;20207;-76
2022/03/31 00:51:54;;;;;;;3.57;1.57;;;2.70;99.90;;;;;;5108352;28;20257;-77
2022/03/31 00:54:25;;;;;;;2.67;1.87;;;2.70;99.90;;;;;;5105770;28;20227;-77
2022/03/31 00:56:53;;;;;;;3.63;1.87;;;2.70;99.90;;;;;;5088007;28;20256;-76
2022/03/31 00:59:21;;;;;;;4.10;2.07;;;2.70;99.90;;;;;;5087921;28;20299;-77
2022/03/31 01:01:49;;;;;;;6.67;2.17;;;2.80;99.90;;;;;;5087306;28;20204;-78
2022/03/31 01:04:17;;;;;;;6.10;2.00;;;2.80;99.90;;;;;;5087478;28;20197;-77
2022/03/31 01:06:44;;;;;;;5.97;1.80;;;2.80;99.90;;;;;;5087901;28;20688;-77
2022/03/31 01:09:13;;;;;;;2.47;1.70;;;2.80;99.90;;;;;;5087304;28;20232;-77
2022/03/31 01:11:41;;;;;;;5.37;1.83;;;2.70;99.90;;;;;;5087844;28;20266;-76
2022/03/31 01:14:09;;;;;;;4.57;1.90;;;2.70;99.90;;;;;;5087516;28;20243;-77
2022/03/31 01:16:37;;;;;;;6.57;2.50;;;2.80;99.90;;;;;;5086785;28;20575;-77
2022/03/31 01:19:06;;;;;;;3.30;2.10;;;2.80;99.90;;;;;;5087049;28;20283;-77
2022/03/31 01:21:37;;;;;;;4.67;2.00;;;2.80;99.90;;;;;;5086898;28;20224;-77
2022/03/31 01:24:07;;;;;;;4.53;2.10;;;2.90;99.90;;;;;;5087787;28;20295;-78
2022/03/31 01:26:35;;;;;;;4.37;2.10;;;2.80;99.90;;;;;;5095101;28;20735;-77
2022/03/31 01:29:03;;;;;;;3.33;2.33;;;2.90;99.90;;;;;;5101158;28;20288;-77
2022/03/31 01:31:30;;;;;;;2.80;2.47;;;2.90;99.90;;;;;;5107535;28;20348;-77
2022/03/31 01:33:58;;;;;;;4.57;2.30;;;2.80;99.90;;;;;;5086853;28;20222;-77
2022/03/31 01:36:25;;;;;;;6.90;3.03;;;2.90;99.90;;;;;;5086048;28;20699;-77
2022/03/31 01:38:53;;;;;;;3.93;2.30;;;2.90;99.90;;;;;;5087290;28;20204;-76
2022/03/31 01:41:22;;;;;;;7.13;2.77;;;2.80;99.90;;;;;;5086707;28;20313;-77
2022/03/31 01:43:49;;;;;;;3.23;2.10;;;2.90;99.90;;;;;;5088935;28;20960;-77
2022/03/31 01:46:16;;;;;;;4.87;2.30;;;2.90;99.90;;;;;;5107300;28;20200;-77
2022/03/31 01:48:43;;;;;;;3.97;1.87;;;2.90;99.90;;;;;;5107761;28;20289;-78
2022/03/31 01:51:10;;;;;;;3.60;2.00;;;2.90;99.90;;;;;;5107203;28;20565;-76
2022/03/31 01:53:39;;;;;;;3.70;2.23;;;2.90;99.90;;;;;;5100564;28;20228;-77
2022/03/31 01:56:07;;;;;;;5.27;2.33;;;3.00;99.90;;;;;;5086717;28;20225;-76
2022/03/31 01:58:36;;;;;;;5.10;2.40;;;3.00;99.90;;;;;;5086688;28;20292;-77
2022/03/31 02:01:04;;;;;;;4.60;2.63;;;3.00;99.90;;;;;;5093717;28;20284;-77
2022/03/31 02:03:33;;;;;;;7.23;2.37;;;3.00;99.90;;;;;;5106682;28;20222;-77
2022/03/31 02:06:00;;;;;;;5.00;2.30;;;3.00;99.90;;;;;;5108457;28;20261;-77
2022/03/31 02:08:27;;;;;;;5.97;2.40;;;3.00;99.90;;;;;;5108192;28;20304;-77
2022/03/31 02:10:54;;;;;;;4.43;2.60;;;3.00;99.90;;;;;;5112022;28;20268;-77
2022/03/31 02:13:21;;;;;;;7.50;2.50;;;3.10;99.90;;;;;;5119289;28;20530;-77
2022/03/31 02:15:49;;;;;;;4.50;2.03;;;3.10;99.90;;;;;;5119341;28;20227;-77
2022/03/31 02:18:16;;;;;;;7.37;2.20;;;3.10;99.90;;;;;;5118989;28;20238;-78
2022/03/31 02:20:43;;;;;;;9.63;3.27;;;3.10;99.90;;;;;;5120643;28;20196;-77
2022/03/31 02:23:10;;;;;;;6.00;2.73;;;3.00;99.90;;;;;;5113749;28;20204;-76
2022/03/31 02:25:38;;;;;;;3.90;2.37;;;3.10;99.90;;;;;;5097448;28;20634;-78
2022/03/31 02:28:06;;;;;;;5.53;2.77;;;3.10;99.90;;;;;;5091717;28;20220;-78
2022/03/31 02:30:32;;;;;;;6.73;2.40;;;3.10;99.90;;;;;;5091557;28;20747;-78
2022/03/31 02:33:02;;;;;;;7.17;3.10;;;3.10;99.90;;;;;;5086956;28;20192;-77
2022/03/31 02:35:30;;;;;;;5.90;2.97;;;3.20;99.90;;;;;;5085786;28;20628;-77
2022/03/31 02:37:56;;;;;;;5.20;2.57;;;3.10;99.90;;;;;;5086458;28;20200;-78
2022/03/31 02:40:23;;;;;;;6.90;2.93;;;3.10;99.90;;;;;;5085771;28;20196;-77
2022/03/31 02:42:50;;;;;;;3.47;2.23;;;3.20;99.90;;;;;;5086359;28;20223;-78
2022/03/31 02:45:19;;;;;;;5.33;2.50;;;3.20;99.90;;;;;;5086025;28;20200;-82
2022/03/31 02:47:46;;;;;;;6.30;2.37;;;3.20;99.90;;;;;;5086259;28;20231;-77
2022/03/31 02:50:17;;;;;;;3.27;2.20;;;3.20;99.90;;;;;;5085448;28;20208;-77
2022/03/31 02:55:29;;;;;;;4.73;2.20;;;3.20;99.90;;;;;;5085732;28;20630;-77
2022/03/31 02:57:57;;;;;;;4.63;2.57;;;3.20;99.90;;;;;;5085727;28;20228;-76
2022/03/31 03:00:25;;;;;;;8.10;2.93;;;3.30;99.90;;;;;;5085420;28;20197;-76
2022/03/31 03:02:53;;;;;;;7.60;2.33;;;3.30;99.90;;;;;;5085672;28;20200;-77
2022/03/31 03:05:21;;;;;;;4.57;2.57;;;3.30;99.90;;;;;;5084783;28;20208;-78
2022/03/31 03:07:48;;;;;;;4.93;2.50;;;3.30;99.90;;;;;;5084907;28;20208;-77
2022/03/31 03:10:15;;;;;;;3.57;2.50;;;3.30;99.90;;;;;;5085082;28;20506;-77
2022/03/31 03:12:42;;;;;;;7.30;3.33;;;3.30;99.90;;;;;;5087371;28;20228;-77
2022/03/31 03:15:10;;;;;;;6.33;2.73;;;3.30;99.90;;;;;;5085453;28;20592;-78
2022/03/31 03:17:41;;;;;;;9.03;2.87;;;3.30;99.90;;;;;;5084568;28;20670;-77
2022/03/31 03:20:11;;;;;;;4.43;2.40;;;3.20;99.90;;;;;;5085504;28;20224;-78
2022/03/31 03:22:39;;;;;;;7.07;2.60;;;3.20;99.90;;;;;;5084785;28;20601;-79
2022/03/31 03:25:07;;;;;;;7.40;2.60;;;3.30;99.90;;;;;;5085268;28;20215;-77
2022/03/31 03:27:34;;;;;;;2.87;2.47;;;3.30;99.90;;;;;;5085441;28;20197;-77
2022/03/31 03:30:01;;;;;;;4.90;3.30;;;3.30;99.90;;;;;;5085074;28;20201;-78
2022/03/31 03:32:28;;;;;;;3.93;2.57;;;3.20;99.90;;;;;;5084229;28;20205;-78
2022/03/31 03:34:54;;;;;;;5.27;2.90;;;3.20;99.90;;;;;;5085701;28;20790;-78
2022/03/31 03:37:21;;;;;;;5.97;3.10;;;3.20;99.90;;;;;;5092939;28;20235;-77
2022/03/31 03:39:49;;;;;;;4.07;2.63;;;3.20;99.90;;;;;;5105480;28;20853;-77
2022/03/31 03:42:16;;;;;;;4.20;2.53;;;3.20;99.90;;;;;;5094007;28;20212;-78
2022/03/31 03:44:43;;;;;;;4.20;1.90;;;3.20;99.90;;;;;;5096928;28;20218;-77
2022/03/31 03:47:10;;;;;;;3.43;2.43;;;3.20;99.90;;;;;;5104910;28;20207;-77
2022/03/31 03:49:36;;;;;;;5.83;2.50;;;3.20;99.90;;;;;;5104540;28;20204;-77
2022/03/31 03:52:04;;;;;;;4.03;2.37;;;3.20;99.90;;;;;;5087123;28;20219;-77
2022/03/31 03:54:31;;;;;;;5.73;2.23;;;3.10;99.90;;;;;;5084411;28;20211;-77
2022/03/31 03:56:59;;;;;;;4.57;2.70;;;3.20;99.90;;;;;;5084375;28;20220;-76
2022/03/31 03:59:26;;;;;;;5.40;2.40;;;3.20;99.90;;;;;;5083930;28;20203;-78
2022/03/31 04:01:52;;;;;;;6.43;2.70;;;3.20;99.90;;;;;;5084044;28;20204;-77
2022/03/31 04:04:19;;;;;;;6.83;2.97;;;3.20;99.90;;;;;;5083865;28;20235;-78
2022/03/31 04:06:46;;;;;;;7.43;2.53;;;3.30;99.90;;;;;;5084342;28;20211;-77
2022/03/31 04:09:13;;;;;;;5.73;3.20;;;3.30;99.90;;;;;;5083430;28;20239;-77
2022/03/31 04:11:39;;;;;;;4.47;2.23;;;3.30;99.90;;;;;;5083901;28;20371;-78
2022/03/31 04:14:08;;;;;;;3.10;2.13;;;3.30;99.90;;;;;;5083530;28;20786;-77
2022/03/31 04:16:35;;;;;;;3.43;2.40;;;3.30;99.90;;;;;;5094005;28;20246;-78
2022/03/31 04:19:02;;;;;;;9.33;2.17;;;3.20;99.90;;;;;;5095056;28;20243;-77
2022/03/31 04:21:28;;;;;;;4.80;2.30;;;3.20;99.90;;;;;;5099634;28;20196;-77
2022/03/31 04:23:55;;;;;;;2.47;1.90;;;3.20;99.90;;;;;;5098094;28;20204;-78
2022/03/31 04:26:22;;;;;;;2.90;2.07;;;3.20;99.90;;;;;;5098499;28;20206;-77
2022/03/31 04:28:49;;;;;;;4.30;2.33;;;3.20;99.90;;;;;;5098870;28;20926;-78
2022/03/31 04:31:17;;;;;;;3.63;2.30;;;3.20;99.90;;;;;;5098431;28;20204;-78
2022/03/31 04:33:44;;;;;;;5.00;2.50;;;3.20;99.90;;;;;;5093648;28;20884;-77
2022/03/31 04:36:10;;;;;;;4.77;2.03;;;3.20;99.90;;;;;;5094693;28;20230;-77
2022/03/31 04:38:37;;;;;;;3.13;1.93;;;3.10;99.90;;;;;;5091104;28;20213;-78
2022/03/31 04:41:04;;;;;;;4.33;2.00;;;3.20;99.90;;;;;;5094229;28;20208;-76
2022/03/31 04:43:31;;;;;;;3.90;2.10;;;3.10;99.90;;;;;;5099646;28;20637;-77
2022/03/31 04:45:58;;;;;;;3.73;2.30;;;3.20;99.90;;;;;;5090426;28;20212;-78
2022/03/31 04:48:26;;;;;;;7.37;3.20;;;3.20;99.90;;;;;;5095604;28;20239;-78
2022/03/31 04:50:54;;;;;;;5.47;2.40;;;3.20;99.90;;;;;;5095520;28;20204;-77
2022/03/31 04:53:20;;;;;;;3.97;2.90;;;3.20;99.90;;;;;;5087635;28;20381;-78
2022/03/31 04:55:47;;;;;;;5.10;2.70;;;3.10;99.90;;;;;;5099168;28;20212;-78
2022/03/31 04:58:14;;;;;;;5.93;2.30;;;3.10;99.90;;;;;;5083440;28;20224;-75
2022/03/31 05:00:41;;;;;;;3.93;2.57;;;3.10;99.90;;;;;;5082793;28;20197;-78
2022/03/31 05:03:08;;;;;;;5.90;1.87;;;3.10;99.90;;;;;;5083869;28;20853;-77
2022/03/31 05:05:37;;;;;;;3.00;1.70;;;3.10;99.90;;;;;;5083719;28;20223;-76
2022/03/31 05:08:04;;;;;;;4.37;1.83;;;3.00;99.90;;;;;;5083401;28;20209;-78
2022/03/31 05:10:31;;;;;;;4.70;2.30;;;3.10;99.90;;;;;;5088407;28;20777;-77
2022/03/31 05:12:58;;;;;;;3.47;2.40;;;3.10;99.90;;;;;;5098040;28;20243;-78
2022/03/31 05:15:24;;;;;;;3.20;2.00;;;3.10;99.90;;;;;;5102956;28;20208;-78
2022/03/31 05:17:51;;;;;;;3.47;2.17;;;3.10;99.90;;;;;;5090255;28;20224;-77
2022/03/31 05:20:18;;;;;;;2.40;1.90;;;3.10;99.90;;;;;;5103886;28;20607;-77
2022/03/31 05:22:46;;;;;;;4.40;2.03;;;3.20;99.90;;;;;;5092073;28;20285;-78
2022/03/31 05:25:13;;;;;;;4.33;1.97;;;3.20;99.90;;;;;;5083546;28;20204;-78
2022/03/31 05:27:44;;;;;;;3.77;1.90;;;3.30;99.90;;;;;;5083659;28;20274;-76
2022/03/31 05:30:12;;;;;;;5.57;2.00;;;3.40;99.90;;;;;;5087108;28;20208;-76
2022/03/31 05:32:39;;;;;;;3.57;1.80;;;3.40;99.90;;;;;;5087163;28;20514;-77
2022/03/31 05:35:08;;;;;;;2.43;1.73;;;3.40;99.90;;;;;;5086905;28;20208;-76
2022/03/31 05:37:36;;;;;;;5.60;1.70;;;3.50;99.90;;;;;;5086587;28;20245;-79
2022/03/31 05:40:06;;;;;;;3.10;1.73;;;3.40;99.90;;;;;;5086804;28;20196;-77
2022/03/31 05:42:33;;;;;;;4.20;1.93;;;3.40;99.90;;;;;;5085840;28;20231;-78
2022/03/31 05:45:01;;;;;;;4.97;2.00;;;3.50;99.90;;;;;;5087594;28;20486;-77
2022/03/31 05:47:28;;;;;;;3.70;2.13;;;3.50;99.90;;;;;;5091716;28;20269;-76
2022/03/31 05:49:55;;;;;;;3.63;2.43;;;3.50;99.90;;;;;;5090773;28;20200;-78
2022/03/31 05:52:23;;;;;;;4.17;2.23;;;3.50;99.90;;;;;;5086468;28;20594;-79
2022/03/31 05:54:50;;;;;;;5.00;2.27;;;3.60;99.90;;;;;;5087617;28;20207;-78
2022/03/31 05:57:18;;;;;;;5.23;2.20;;;3.60;99.90;;;;;;5086143;28;20255;-77
2022/03/31 05:59:45;;;;;;;3.93;1.97;;;3.70;99.90;;;;;;5086755;28;20189;-77
2022/03/31 06:02:12;;;;;;;4.13;2.00;;;3.70;99.90;;;;;;5086877;28;20295;-77
2022/03/31 06:04:40;;;;;;;6.07;2.63;;;3.70;99.90;;;;;;5086307;28;20529;-79
2022/03/31 06:07:08;;;;;;;4.17;2.10;;;3.80;99.90;;;;;;5087521;28;20514;-76
2022/03/31 06:09:35;;;;;;;5.47;2.57;;;3.70;99.90;;;;;;5086019;28;20521;-78
2022/03/31 06:12:02;;;;;;;5.30;2.67;;;3.80;99.90;;;;;;5086287;28;20196;-77
2022/03/31 06:14:31;;;;;;;4.90;2.83;;;3.80;99.90;;;;;;5086413;28;20240;-78
2022/03/31 06:16:57;;;;;;;3.47;2.47;;;3.90;99.90;;;;;;5086445;28;20216;-78
2022/03/31 06:19:24;;;;;;;3.70;2.43;;;3.90;99.90;;;;;;5086111;28;20243;-78
2022/03/31 06:21:51;;;;;;;3.33;2.20;;;3.90;99.90;;;;;;5087172;28;20208;-79
2022/03/31 06:24:18;;;;;;;3.60;2.27;;;3.90;99.90;;;;;;5085272;28;20205;-79
2022/03/31 06:26:45;;;;;;;2.53;2.00;;;3.90;99.90;;;;;;5086649;28;20204;-78
2022/03/31 06:29:13;;;;;;;2.60;1.93;;;3.80;99.90;;;;;;5086076;28;21019;-77
2022/03/31 06:31:42;;;;;;;5.10;2.73;;;3.70;99.90;;;;;;5086737;28;20211;-79
2022/03/31 06:34:09;;;;;;;2.33;1.63;;;3.60;99.90;;;;;;5087191;28;20196;-79
2022/03/31 06:36:35;;;;;;;2.40;1.80;;;3.50;99.90;;;;;;5086283;28;20231;-77
2022/03/31 06:39:03;;;;;;;3.73;1.80;;;3.40;99.90;;;;;;5085511;28;20514;-81
2022/03/31 06:41:30;;;;;;;2.93;1.90;;;3.40;99.90;;;;;;5085058;28;20279;-77
2022/03/31 06:43:57;;;;;;;2.33;2.13;;;3.40;99.90;;;;;;5086398;28;20816;-78
2022/03/31 06:46:25;;;;;;;3.43;2.07;;;3.40;99.90;;;;;;5086858;28;20902;-78
2022/03/31 06:48:53;;;;;;;4.90;2.83;;;3.40;99.90;;;;;;5105985;28;20215;-78
2022/03/31 06:51:20;;;;;;;4.77;2.30;;;3.40;99.90;;;;;;5096286;28;20200;-78
2022/03/31 06:53:47;;;;;;;4.07;1.83;;;3.50;99.90;;;;;;5102233;28;20878;-77
2022/03/31 06:56:18;;;;;;;2.60;2.30;;;3.50;99.90;;;;;;5085794;28;20208;-77
2022/03/31 06:58:45;;;;;;;4.80;2.57;;;3.50;99.90;;;;;;5085896;28;20246;-77
2022/03/31 07:01:12;;;;;;;2.40;1.83;;;3.50;99.90;;;;;;5091850;28;20619;-77
2022/03/31 07:03:39;;;;;;;5.83;2.13;;;3.50;99.90;;;;;;5106875;28;20200;-77
2022/03/31 07:06:08;;;;;;;6.93;2.60;;;3.60;99.90;;;;;;5100199;28;20619;-77
2022/03/31 07:08:35;;;;;;;2.63;1.73;;;3.60;99.90;;;;;;5085690;28;20200;-78
2022/03/31 07:11:02;;;;;;;2.33;1.90;;;3.60;99.90;;;;;;5085894;28;20315;-77
2022/03/31 07:13:29;;;;;;;6.63;2.10;;;3.70;99.90;;;;;;5084683;28;20737;-77
2022/03/31 07:15:57;;;;;;;6.07;2.30;;;3.80;99.90;;;;;;5085872;28;20204;-79
2022/03/31 07:18:24;;;;;;;4.53;1.67;;;3.80;99.90;;;;;;5085649;28;20228;-78
2022/03/31 07:21:24;;;;;;;4.70;2.07;;;3.90;99.90;;;;;;5037171;28;20652;-78
2022/03/31 07:23:52;;;;;;;6.03;1.90;;;4.00;99.90;;;;;;5085241;28;20192;-79
2022/03/31 07:26:19;;;;;;;4.03;2.90;;;4.10;99.90;;;;;;5085442;28;20201;-78
2022/03/31 07:28:46;;;;;;;4.47;2.30;;;4.10;99.90;;;;;;5084678;28;20193;-77
2022/03/31 07:31:13;;;;;;;2.40;1.57;;;4.20;99.90;;;;;;5084511;28;20201;-78
2022/03/31 07:33:40;;;;;;;3.47;2.00;;;4.20;99.90;;;;;;5085149;28;20204;-77
2022/03/31 07:36:07;;;;;;;3.70;2.00;;;4.30;99.90;;;;;;5084858;28;20205;-77
2022/03/31 07:38:35;;;;;;;3.37;2.00;;;4.40;99.90;;;;;;5087517;28;20287;-77
2022/03/31 07:41:03;;;;;;;4.53;2.17;;;4.50;99.90;;;;;;5085190;28;20266;-79
2022/03/31 07:43:30;;;;;;;3.20;2.63;;;4.60;99.90;;;;;;5084409;28;20201;-76
2022/03/31 07:45:57;;;;;;;5.50;2.60;;;4.70;99.90;;;;;;5085120;28;20204;-77
2022/03/31 07:48:24;;;;;;;3.13;2.27;;;4.70;99.90;;;;;;5097574;28;20207;-78
2022/03/31 07:50:50;;;;;;;3.47;2.10;;;4.70;99.90;;;;;;5105314;28;20199;-77
2022/03/31 07:53:17;;;;;;;3.07;2.10;;;4.70;99.90;;;;;;5100115;28;20200;-76
2022/03/31 07:55:46;;;;;;;3.50;2.30;;;4.70;99.90;;;;;;5085023;28;20197;-77
2022/03/31 07:58:12;;;;;;;4.70;2.20;;;4.70;99.90;;;;;;5084701;28;20228;-76
2022/03/31 08:00:39;;;;;;;5.30;2.37;;;4.70;99.90;;;;;;5084575;28;20901;-76
2022/03/31 08:03:06;;;;;;;2.90;2.17;;;4.70;99.90;;;;;;5083681;28;20201;-78
2022/03/31 08:05:37;;;;;;;2.20;2.00;;;4.80;99.90;;;;;;5085366;28;20208;-76
2022/03/31 08:08:04;;;;;;;2.90;2.10;;;4.80;99.90;;;;;;5084023;28;20193;-77
2022/03/31 08:10:31;;;;;;;3.07;1.87;;;4.80;99.90;;;;;;5084001;28;20231;-77
2022/03/31 08:13:00;;;;;;;4.30;1.93;;;4.90;99.90;;;;;;5085190;28;20232;-77
2022/03/31 08:15:26;;;;;;;3.57;2.17;;;5.00;99.90;;;;;;5099343;28;20238;-76
2022/03/31 08:17:54;;;;;;;2.33;2.13;;;5.20;99.90;;;;;;5105339;28;20220;-78
2022/03/31 08:20:21;;;;;;;2.27;2.07;;;5.30;99.90;;;;;;5086564;28;20211;-77
2022/03/31 08:22:48;;;;;;;2.30;1.90;;;5.40;99.90;;;;;;5085306;28;20725;-79
2022/03/31 08:25:17;;;;;;;3.57;1.80;;;5.30;99.90;;;;;;5090630;28;20290;-78
2022/03/31 08:27:45;;;;;;;1.90;1.80;;;5.30;99.90;;;;;;5085329;28;20273;-77
2022/03/31 08:30:16;;;;;;;1.80;1.70;;;5.30;99.90;;;;;;5084607;28;20211;-78
2022/03/31 08:32:43;;;;;;;2.30;2.10;;;5.40;99.90;;;;;;5083830;28;20208;-77
2022/03/31 08:35:11;;;;;;;4.13;2.00;;;5.50;99.90;;;;;;5084462;28;20204;-78
2022/03/31 08:37:39;;;;;;;2.53;1.97;;;5.50;99.90;;;;;;5083617;28;20930;-78
2022/03/31 08:40:07;;;;;;;2.60;2.17;;;5.50;99.90;;;;;;5084406;28;20412;-78
2022/03/31 08:42:34;;;;;;;3.23;2.23;;;5.60;99.90;;;;;;5083934;28;20196;-76
2022/03/31 08:45:02;;;;;;;1.97;1.63;;;5.60;99.90;;;;;;5083620;28;20208;-77
2022/03/31 08:47:31;;;;;;;2.73;2.03;;;5.60;99.90;;;;;;5088516;28;20200;-78
2022/03/31 08:49:58;;;;;;;2.83;2.10;;;5.60;99.90;;;;;;5100555;28;20205;-77
2022/03/31 08:52:25;;;;;;;3.00;2.70;;;5.60;99.90;;;;;;5082898;28;20485;-77
2022/03/31 08:54:52;;;;;;;4.60;3.70;;;5.60;99.90;;;;;;5083981;28;20765;-77
2022/03/31 08:57:19;;;;;;;5.80;4.10;;;5.60;99.90;;;;;;5084014;28;20200;-77
2022/03/31 08:59:47;;;;;;;4.40;2.63;;;5.60;99.90;;;;;;5083610;28;20687;-78
2022/03/31 09:02:23;;;;;;;2.70;2.50;;;5.70;99.90;;;;;;5084101;28;20212;-77
2022/03/31 09:05:02;;;;;;;2.53;2.33;;;5.60;99.90;;;;;;5088198;28;20208;-78
2022/03/31 09:07:29;;;;;;;3.53;2.33;;;5.60;99.90;;;;;;5087724;28;20192;-77
2022/03/31 09:09:56;;;;;;;2.00;1.80;;;5.70;99.90;;;;;;5087762;28;20296;-76
2022/03/31 09:12:26;;;;;;;2.30;2.10;;;5.80;99.90;;;;;;5087719;28;20841;-78
2022/03/31 09:14:53;;;;;;;3.60;3.10;;;5.80;99.90;;;;;;5086651;28;20197;-78
2022/03/31 09:17:20;;;;;;;3.43;2.13;;;5.90;99.90;;;;;;5087643;28;20227;-77
2022/03/31 09:19:47;;;;;;;2.53;2.33;;;5.90;99.90;;;;;;5087690;28;20228;-78
2022/03/31 09:22:15;;;;;;;3.40;1.83;;;6.00;99.90;;;;;;5086805;28;20808;-77
2022/03/31 09:24:42;;;;;;;2.97;2.37;;;6.00;99.90;;;;;;5087141;28;20197;-77
2022/03/31 09:27:09;;;;;;;2.37;1.90;;;5.90;99.90;;;;;;5086746;28;20606;-77
2022/03/31 09:29:36;;;;;;;3.07;2.50;;;5.90;99.90;;;;;;5087319;28;20216;-78
2022/03/31 09:32:08;;;;;;;2.87;2.50;;;5.90;99.90;;;;;;5087221;28;20208;-78
2022/03/31 09:34:40;;;;;;;5.17;3.77;;;5.90;99.90;;;;;;5086621;28;20204;-79
2022/03/31 09:37:07;;;;;;;3.50;3.20;;;5.80;99.90;;;;;;5087234;28;20209;-77
2022/03/31 09:39:36;;;;;;;3.07;2.73;;;5.80;99.90;;;;;;5087250;28;20221;-77
2022/03/31 09:42:10;;;;;;;3.10;2.60;;;5.90;99.90;;;;;;5087119;28;20200;-78
2022/03/31 09:44:37;;;;;;;3.00;2.60;;;6.00;99.90;;;;;;5087563;28;20208;-78
2022/03/31 09:47:04;;;;;;;3.07;2.87;;;6.20;99.90;;;;;;5088512;28;20204;-78
2022/03/31 09:49:30;;;;;;;3.27;2.97;;;6.40;99.90;;;;;;5106455;28;20222;-77
2022/03/31 09:51:59;;;;;;;3.97;2.83;;;6.40;99.90;;;;;;5107565;28;20195;-78
2022/03/31 09:54:27;;;;;;;3.40;2.90;;;6.40;99.90;;;;;;5095416;28;20632;-78
2022/03/31 09:56:57;;;;;;;3.13;2.77;;;6.50;99.90;;;;;;5086893;28;20204;-78
2022/03/31 09:59:31;;;;;;;2.83;2.63;;;6.40;99.90;;;;;;5086933;28;20521;-78
2022/03/31 10:01:58;;;;;;;3.23;3.00;;;6.40;99.90;;;;;;5086575;28;20288;-78
2022/03/31 10:04:26;;;;;;;3.27;2.93;;;6.40;99.90;;;;;;5086726;28;20207;-79
2022/03/31 10:06:53;;;;;;;3.10;2.80;;;6.40;99.90;;;;;;5086981;28;20200;-78
2022/03/31 10:09:22;;;;;;;3.43;2.73;;;6.40;99.90;;;;;;5085386;28;20212;-77
2022/03/31 10:11:56;;;;;;;3.97;3.53;;;6.30;99.90;;;;;;5086607;28;20223;-79
2022/03/31 10:14:31;;;;;;;3.20;3.00;;;6.40;99.90;;;;;;5085790;28;20898;-78
2022/03/31 10:17:00;;;;;;;3.17;2.87;;;6.40;99.90;;;;;;5105114;28;20292;-77
2022/03/31 10:19:32;;;;;;;3.83;2.93;;;6.50;99.90;;;;;;5106899;28;20246;-78
2022/03/31 10:22:03;;;;;;;4.93;3.60;;;6.60;99.90;;;;;;5095601;28;20196;-77
2022/03/31 10:24:42;;;;;;;3.50;3.20;;;6.60;99.90;;;;;;5085123;28;20193;-78
2022/03/31 10:27:09;;;;;;;3.87;3.07;;;6.50;99.90;;;;;;5085255;28;20295;-78
2022/03/31 10:29:43;;;;;;;3.40;3.10;;;6.50;99.90;;;;;;5085390;28;20204;-78
2022/03/31 10:32:18;;;;;;;3.07;2.77;;;6.50;99.90;;;;;;5085589;28;20593;-76
2022/03/31 10:34:48;;;;;;;5.23;3.00;;;6.50;99.90;;;;;;5085284;28;20199;-78
2022/03/31 10:37:16;;;;;;;3.23;2.93;;;6.50;99.90;;;;;;5084862;28;20196;-79
2022/03/31 10:39:53;;;;;;;3.23;2.93;;;6.50;99.90;;;;;;5085713;28;20227;-78
2022/03/31 10:42:20;;;;;;;3.47;3.17;;;6.60;99.90;;;;;;5099641;28;20204;-78
2022/03/31 10:44:48;;;;;;;3.07;2.87;;;6.70;99.90;;;;;;5105686;28;20215;-79
2022/03/31 10:47:15;;;;;;;4.60;3.90;;;6.70;99.90;;;;;;5105552;28;20212;-78
2022/03/31 10:49:53;;;;;;;3.97;3.50;;;6.90;99.90;;;;;;5105715;28;20302;-78
2022/03/31 10:52:23;;;;;;;3.73;3.43;;;7.00;99.90;;;;;;5089538;28;20326;-78
2022/03/31 10:54:50;;;;;;;3.70;3.40;;;7.10;99.90;;;;;;5085950;28;20215;-79
2022/03/31 10:57:19;;;;;;;3.60;3.30;;;7.20;99.90;;;;;;5084965;28;20215;-78
2022/03/31 10:59:49;;;;;;;4.27;3.87;;;7.10;99.90;;;;;;5084918;28;20224;-77
2022/03/31 11:02:18;;;;;;;3.73;3.43;;;7.00;99.90;;;;;;5086095;28;20195;-76
2022/03/31 11:04:48;;;;;;;4.00;3.60;;;6.80;99.90;;;;;;5086218;28;20200;-77
2022/03/31 11:07:17;;;;;;;4.10;3.70;;;6.70;99.90;;;;;;5084505;28;20204;-79
2022/03/31 11:09:45;;;;;;;4.83;4.10;;;6.50;99.90;;;;;;5085554;28;20212;-78
2022/03/31 11:12:23;;;;;;;4.77;4.37;;;6.30;99.90;;;;;;5102401;28;20203;-77
2022/03/31 11:14:57;;;;;;;4.57;4.17;;;6.30;99.90;;;;;;5086232;28;20705;-77
2022/03/31 11:17:25;;;;;;;4.77;4.30;;;6.20;99.90;;;;;;5085397;28;20200;-79
2022/03/31 11:19:53;;;;;;;5.20;4.70;;;6.00;99.90;;;;;;5084617;28;20224;-78
2022/03/31 11:22:21;;;;;;;6.80;4.53;;;5.90;99.90;;;;;;5084701;28;20210;-76
2022/03/31 11:24:50;;;;;;;4.17;3.77;;;5.90;99.90;;;;;;5084827;28;20223;-77
2022/03/31 11:27:17;;;;;;;2.87;2.67;;;5.70;99.90;;;;;;5084289;28;20205;-77
2022/03/31 11:29:44;;;;;;;3.87;3.30;;;5.60;99.90;;;;;;5085103;28;20196;-76
2022/03/31 11:32:13;;;;;;;3.27;2.90;;;5.60;99.90;;;;;;5085029;28;20207;-77
2022/03/31 11:34:39;;;;;;;2.97;2.53;;;5.50;99.90;;;;;;5085042;28;20201;-77
2022/03/31 11:37:17;;;;;;;2.80;2.60;;;5.30;99.90;;;;;;5084816;28;20390;-78
2022/03/31 11:39:49;;;;;;;3.30;3.00;;;5.30;99.90;;;;;;5085701;28;20224;-77
2022/03/31 11:42:16;;;;;;;3.00;2.77;;;5.30;99.90;;;;;;5083594;28;20205;-77
2022/03/31 11:44:43;;;;;;;2.60;2.40;;;5.30;99.90;;;;;;5085059;28;20227;-78
2022/03/31 11:47:18;;;;;;;3.50;2.97;;;5.30;99.90;;;;;;5086999;28;20211;-77
2022/03/31 11:49:45;;;;;;;3.40;3.10;;;5.30;99.90;;;;;;5101119;28;20226;-77
2022/03/31 11:52:12;;;;;;;2.80;2.60;;;5.40;99.90;;;;;;5084473;28;20493;-77
2022/03/31 11:54:42;;;;;;;3.53;3.23;;;5.30;99.90;;;;;;5084372;28;20211;-76
2022/03/31 11:57:11;;;;;;;4.00;3.30;;;5.10;99.90;;;;;;5084858;28;20673;-76
2022/03/31 11:59:38;;;;;;;3.53;3.23;;;5.20;99.90;;;;;;5085079;28;20251;-76
2022/03/31 12:02:15;;;;;;;4.00;3.70;;;5.10;99.90;;;;;;5084292;28;20200;-77
2022/03/31 12:04:44;;;;;;;3.47;3.17;;;5.10;99.90;;;;;;5085175;28;20200;-78
2022/03/31 12:07:13;;;;;;;3.40;3.10;;;5.00;99.90;;;;;;5084352;28;20269;-79
2022/03/31 12:09:41;;;;;;;3.53;3.23;;;5.00;99.90;;;;;;5085013;28;20204;-75
2022/03/31 12:12:11;;;;;;;4.07;3.17;;;4.90;99.90;;;;;;5084264;28;20302;-76
2022/03/31 12:14:38;;;;;;;4.50;3.87;;;5.00;99.90;;;;;;5084547;28;20236;-78
2022/03/31 12:17:07;;;;;;;3.70;3.40;;;5.20;99.90;;;;;;5083792;28;20203;-77
2022/03/31 12:19:42;;;;;;;4.07;3.67;;;5.10;99.90;;;;;;5083952;28;20318;-78
2022/03/31 12:22:10;;;;;;;3.67;3.30;;;5.10;99.90;;;;;;5084100;28;20200;-78
2022/03/31 12:24:47;;;;;;;5.30;3.50;;;5.10;99.90;;;;;;5083340;28;20675;-77
2022/03/31 12:27:16;;;;;;;4.20;3.80;;;5.10;99.90;;;;;;5083667;28;20307;-75
2022/03/31 12:29:43;;;;;;;3.47;3.17;;;5.00;99.90;;;;;;5083580;28;20262;-77
2022/03/31 12:32:12;;;;;;;3.30;3.00;;;5.00;99.90;;;;;;5084053;28;20192;-77
2022/03/31 12:34:52;;;;;;;3.13;2.93;;;5.00;99.90;;;;;;5084197;28;20205;-75
2022/03/31 12:37:28;;;;;;;3.30;3.00;;;5.00;99.90;;;;;;5083053;28;20204;-80
2022/03/31 12:39:55;;;;;;;3.10;2.80;;;5.00;99.90;;;;;;5084274;28;20311;-79
2022/03/31 12:42:22;;;;;;;3.40;3.10;;;4.90;99.90;;;;;;5083713;28;20204;-76
2022/03/31 12:44:48;;;;;;;3.67;3.37;;;4.90;99.90;;;;;;5083297;28;20499;-77
2022/03/31 12:47:21;;;;;;;3.50;3.20;;;4.80;99.90;;;;;;5087156;28;20518;-79
2022/03/31 12:49:50;;;;;;;4.00;3.50;;;4.90;99.90;;;;;;5096838;28;20193;-78
2022/03/31 12:52:18;;;;;;;3.07;2.77;;;4.90;99.90;;;;;;5082313;28;20297;-77
2022/03/31 12:54:50;;;;;;;4.23;3.70;;;4.90;99.90;;;;;;5084675;28;20517;-78
2022/03/31 12:57:19;;;;;;;4.10;3.70;;;4.90;99.90;;;;;;5084617;28;20204;-76
2022/03/31 12:59:57;;;;;;;3.77;3.37;;;4.80;99.90;;;;;;5083745;28;20231;-78
2022/03/31 13:02:24;;;;;;;4.00;3.60;;;4.80;99.90;;;;;;5084185;28;20201;-77
2022/03/31 13:04:52;;;;;;;6.00;3.57;;;4.70;99.90;;;;;;5084079;28;20196;-80
2022/03/31 13:07:27;;;;;;;3.87;3.47;;;4.80;99.90;;;;;;5084064;28;20195;-75
2022/03/31 13:09:54;;;;;;;4.37;3.97;;;4.80;99.90;;;;;;5084260;28;20204;-77